sensor_id;sensor_type;location;lat;lon;timestamp;temperature;humidity
26954;DHT22;14508;50.924;11.600;2023-07-28T00:00:55;18.50;99.90
26954;DHT22;14508;50.924;11.600;2023-07-28T00:03:23;18.50;99.90
26954;DHT22;14508;50.924;11.600;2023-07-28T00:05:51;18.50;99.90
26954;DHT22;14508;50.924;11.600;2023-07-28T00:08:18;18.50;99.90
26954;DHT22;14508;50.924;11.600;2023-07-28T00:10:48;18.50;99.90
26954;DHT22;14508;50.924;11.600;2023-07-28T00:13:16;18.40;99.90
26954;DHT22;14508;50.924;11.600;2023-07-28T00:15:44;18.40;99.90
26954;DHT22;14508;50.924;11.600;2023-07-28T00:18:12;18.40;99.90
26954;DHT22;14508;50.924;11.600;2023-07-28T00:20:39;18.30;99.90
26954;DHT22;14508;50.924;11.600;2023-07-28T00:23:08;18.30;99.90
26954;DHT22;14508;50.924;11.600;2023-07-28T00:25:36;18.30;99.90
26954;DHT22;14508;50.924;11.600;2023-07-28T00:28:05;18.30;99.90
26954;DHT22;14508;50.924;11.600;2023-07-28T00:30:33;18.20;99.90
26954;DHT22;14508;50.924;11.600;2023-07-28T00:33:02;18.20;99.90
26954;DHT22;14508;50.924;11.600;2023-07-28T00:35:30;18.20;99.90
26954;DHT22;14508;50.924;11.600;2023-07-28T00:37:58;18.20;99.90
26954;DHT22;14508;50.924;11.600;2023-07-28T00:40:26;18.10;99.90
26954;DHT22;14508;50.924;11.600;2023-07-28T00:42:54;18.10;99.90
26954;DHT22;14508;50.924;11.600;2023-07-28T00:45:23;18.10;99.90
26954;DHT22;14508;50.924;11.600;2023-07-28T00:47:51;18.10;99.90
26954;DHT22;14508;50.924;11.600;2023-07-28T00:50:19;18.00;99.90
26954;DHT22;14508;50.924;11.600;2023-07-28T00:52:47;18.00;99.90
26954;DHT22;14508;50.924;11.600;2023-07-28T00:55:16;18.00;99.90
26954;DHT22;14508;50.924;11.600;2023-07-28T00:57:44;18.00;99.90
26954;DHT22;14508;50.924;11.600;2023-07-28T01:00:12;18.00;99.90
26954;DHT22;14508;50.924;11.600;2023-07-28T01:02:42;18.00;99.90
26954;DHT22;14508;50.924;11.600;2023-07-28T01:05:10;17.90;99.90
26954;DHT22;14508;50.924;11.600;2023-07-28T01:07:46;17.90;99.90
26954;DHT22;14508;50.924;11.600;2023-07-28T01:10:17;17.90;99.90
26954;DHT22;14508;50.924;11.600;2023-07-28T01:12:46;17.80;99.90
26954;DHT22;14508;50.924;11.600;2023-07-28T01:15:14;17.80;99.90
26954;DHT22;14508;50.924;11.600;2023-07-28T01:17:43;17.80;99.90
26954;DHT22;14508;50.924;11.600;2023-07-28T01:20:11;17.70;99.90
26954;DHT22;14508;50.924;11.600;2023-07-28T01:23:04;17.70;99.90
26954;DHT22;14508;50.924;11.600;2023-07-28T01:25:39;17.70;99.90
26954;DHT22;14508;50.924;11.600;2023-07-28T01:28:13;17.70;99.90
26954;DHT22;14508;50.924;11.600;2023-07-28T01:30:41;17.70;99.90
26954;DHT22;14508;50.924;11.600;2023-07-28T01:33:09;17.70;99.90
26954;DHT22;14508;50.924;11.600;2023-07-28T01:35:37;17.70;99.90
26954;DHT22;14508;50.924;11.600;2023-07-28T01:38:05;17.70;99.90
26954;DHT22;14508;50.924;11.600;2023-07-28T01:40:34;17.70;99.90
26954;DHT22;14508;50.924;11.600;2023-07-28T01:43:02;17.70;99.90
26954;DHT22;14508;50.924;11.600;2023-07-28T01:45:31;17.60;99.90
26954;DHT22;14508;50.924;11.600;2023-07-28T01:47:59;17.60;99.90
26954;DHT22;14508;50.924;11.600;2023-07-28T01:50:27;17.60;99.90
26954;DHT22;14508;50.924;11.600;2023-07-28T01:52:55;17.60;99.90
26954;DHT22;14508;50.924;11.600;2023-07-28T01:55:23;17.60;99.90
26954;DHT22;14508;50.924;11.600;2023-07-28T01:57:55;17.60;99.90
26954;DHT22;14508;50.924;11.600;2023-07-28T02:00:23;17.60;99.90
26954;DHT22;14508;50.924;11.600;2023-07-28T02:02:53;17.60;99.90
26954;DHT22;14508;50.924;11.600;2023-07-28T02:05:22;17.60;99.90
26954;DHT22;14508;50.924;11.600;2023-07-28T02:07:49;17.50;99.90
26954;DHT22;14508;50.924;11.600;2023-07-28T02:10:17;17.50;99.90
26954;DHT22;14508;50.924;11.600;2023-07-28T02:12:45;17.50;99.90
26954;DHT22;14508;50.924;11.600;2023-07-28T02:15:13;17.50;99.90
26954;DHT22;14508;50.924;11.600;2023-07-28T02:17:41;17.60;99.90
26954;DHT22;14508;50.924;11.600;2023-07-28T02:20:11;17.50;99.90
26954;DHT22;14508;50.924;11.600;2023-07-28T02:22:40;17.50;99.90
26954;DHT22;14508;50.924;11.600;2023-07-28T02:25:08;17.60;99.90
26954;DHT22;14508;50.924;11.600;2023-07-28T02:27:37;17.60;99.90
26954;DHT22;14508;50.924;11.600;2023-07-28T02:30:06;17.60;99.90
26954;DHT22;14508;50.924;11.600;2023-07-28T02:32:35;17.60;99.90
26954;DHT22;14508;50.924;11.600;2023-07-28T02:35:03;17.60;99.90
26954;DHT22;14508;50.924;11.600;2023-07-28T02:37:33;17.60;99.90
26954;DHT22;14508;50.924;11.600;2023-07-28T02:40:01;17.60;99.90
26954;DHT22;14508;50.924;11.600;2023-07-28T02:42:30;17.60;99.90
26954;DHT22;14508;50.924;11.600;2023-07-28T02:45:00;17.60;99.90
26954;DHT22;14508;50.924;11.600;2023-07-28T02:47:28;17.50;99.90
26954;DHT22;14508;50.924;11.600;2023-07-28T02:49:58;17.50;99.90
26954;DHT22;14508;50.924;11.600;2023-07-28T02:52:26;17.50;99.90
26954;DHT22;14508;50.924;11.600;2023-07-28T02:54:55;17.50;99.90
26954;DHT22;14508;50.924;11.600;2023-07-28T02:57:23;17.50;99.90
26954;DHT22;14508;50.924;11.600;2023-07-28T02:59:51;17.50;99.90
26954;DHT22;14508;50.924;11.600;2023-07-28T03:02:20;17.50;99.90
26954;DHT22;14508;50.924;11.600;2023-07-28T03:04:49;17.60;99.90
26954;DHT22;14508;50.924;11.600;2023-07-28T03:07:17;17.60;99.90
26954;DHT22;14508;50.924;11.600;2023-07-28T03:09:51;17.60;99.90
26954;DHT22;14508;50.924;11.600;2023-07-28T03:12:22;17.60;99.90
26954;DHT22;14508;50.924;11.600;2023-07-28T03:14:49;17.60;99.90
26954;DHT22;14508;50.924;11.600;2023-07-28T03:17:17;17.60;99.90
26954;DHT22;14508;50.924;11.600;2023-07-28T03:19:46;17.60;99.90
26954;DHT22;14508;50.924;11.600;2023-07-28T03:22:13;17.60;99.90
26954;DHT22;14508;50.924;11.600;2023-07-28T03:24:41;17.60;99.90
26954;DHT22;14508;50.924;11.600;2023-07-28T03:27:12;17.60;99.90
26954;DHT22;14508;50.924;11.600;2023-07-28T03:29:42;17.60;99.90
26954;DHT22;14508;50.924;11.600;2023-07-28T03:32:11;17.60;99.90
26954;DHT22;14508;50.924;11.600;2023-07-28T03:34:39;17.60;99.90
26954;DHT22;14508;50.924;11.600;2023-07-28T03:37:10;17.60;99.90
26954;DHT22;14508;50.924;11.600;2023-07-28T03:39:38;17.50;99.90
26954;DHT22;14508;50.924;11.600;2023-07-28T03:42:07;17.50;99.90
26954;DHT22;14508;50.924;11.600;2023-07-28T03:44:35;17.50;99.90
26954;DHT22;14508;50.924;11.600;2023-07-28T03:47:06;17.50;99.90
26954;DHT22;14508;50.924;11.600;2023-07-28T03:49:34;17.50;99.90
26954;DHT22;14508;50.924;11.600;2023-07-28T03:52:02;17.50;99.90
26954;DHT22;14508;50.924;11.600;2023-07-28T03:54:30;17.50;99.90
26954;DHT22;14508;50.924;11.600;2023-07-28T03:56:58;17.50;99.90
26954;DHT22;14508;50.924;11.600;2023-07-28T03:59:26;17.50;99.90
26954;DHT22;14508;50.924;11.600;2023-07-28T04:01:54;17.50;99.90
26954;DHT22;14508;50.924;11.600;2023-07-28T04:04:23;17.50;99.90
26954;DHT22;14508;50.924;11.600;2023-07-28T04:06:51;17.50;99.90
26954;DHT22;14508;50.924;11.600;2023-07-28T04:09:20;17.50;99.90
26954;DHT22;14508;50.924;11.600;2023-07-28T04:11:48;17.50;99.90
26954;DHT22;14508;50.924;11.600;2023-07-28T04:14:16;17.50;99.90
26954;DHT22;14508;50.924;11.600;2023-07-28T04:16:44;17.50;99.90
26954;DHT22;14508;50.924;11.600;2023-07-28T04:19:12;17.50;99.90
26954;DHT22;14508;50.924;11.600;2023-07-28T04:21:41;17.50;99.90
26954;DHT22;14508;50.924;11.600;2023-07-28T04:24:10;17.50;99.90
26954;DHT22;14508;50.924;11.600;2023-07-28T04:26:44;17.50;99.90
26954;DHT22;14508;50.924;11.600;2023-07-28T04:29:15;17.50;99.90
26954;DHT22;14508;50.924;11.600;2023-07-28T04:31:45;17.50;99.90
26954;DHT22;14508;50.924;11.600;2023-07-28T04:34:15;17.50;99.90
26954;DHT22;14508;50.924;11.600;2023-07-28T04:37:00;17.50;99.90
26954;DHT22;14508;50.924;11.600;2023-07-28T04:39:39;17.50;99.90
26954;DHT22;14508;50.924;11.600;2023-07-28T04:42:09;17.60;99.90
26954;DHT22;14508;50.924;11.600;2023-07-28T04:44:40;17.60;99.90
26954;DHT22;14508;50.924;11.600;2023-07-28T04:47:08;17.60;99.90
26954;DHT22;14508;50.924;11.600;2023-07-28T04:49:37;17.60;99.90
26954;DHT22;14508;50.924;11.600;2023-07-28T04:52:09;17.60;99.90
26954;DHT22;14508;50.924;11.600;2023-07-28T04:54:46;17.60;99.90
26954;DHT22;14508;50.924;11.600;2023-07-28T04:57:14;17.70;99.90
26954;DHT22;14508;50.924;11.600;2023-07-28T04:59:42;17.70;99.90
26954;DHT22;14508;50.924;11.600;2023-07-28T05:02:10;17.70;99.90
26954;DHT22;14508;50.924;11.600;2023-07-28T05:04:39;17.70;99.90
26954;DHT22;14508;50.924;11.600;2023-07-28T05:07:08;17.70;99.90
26954;DHT22;14508;50.924;11.600;2023-07-28T05:09:36;17.80;99.90
26954;DHT22;14508;50.924;11.600;2023-07-28T05:12:05;17.80;99.90
26954;DHT22;14508;50.924;11.600;2023-07-28T05:14:40;17.80;99.90
26954;DHT22;14508;50.924;11.600;2023-07-28T05:17:08;17.80;99.90
26954;DHT22;14508;50.924;11.600;2023-07-28T05:19:44;17.80;99.90
26954;DHT22;14508;50.924;11.600;2023-07-28T05:22:39;17.80;99.90
26954;DHT22;14508;50.924;11.600;2023-07-28T05:25:08;17.80;99.90
26954;DHT22;14508;50.924;11.600;2023-07-28T05:27:40;17.80;99.90
26954;DHT22;14508;50.924;11.600;2023-07-28T05:30:08;17.80;99.90
26954;DHT22;14508;50.924;11.600;2023-07-28T05:32:37;17.90;99.90
26954;DHT22;14508;50.924;11.600;2023-07-28T05:35:08;17.90;99.90
26954;DHT22;14508;50.924;11.600;2023-07-28T05:37:37;17.90;99.90
26954;DHT22;14508;50.924;11.600;2023-07-28T05:40:07;17.90;99.90
26954;DHT22;14508;50.924;11.600;2023-07-28T05:42:36;17.90;99.90
26954;DHT22;14508;50.924;11.600;2023-07-28T05:45:05;18.00;99.90
26954;DHT22;14508;50.924;11.600;2023-07-28T05:47:33;18.00;99.90
26954;DHT22;14508;50.924;11.600;2023-07-28T05:50:03;18.10;99.90
26954;DHT22;14508;50.924;11.600;2023-07-28T05:52:32;18.10;99.90
26954;DHT22;14508;50.924;11.600;2023-07-28T05:55:00;18.10;99.90
26954;DHT22;14508;50.924;11.600;2023-07-28T05:57:29;18.10;99.90
26954;DHT22;14508;50.924;11.600;2023-07-28T06:00:00;18.20;99.90
26954;DHT22;14508;50.924;11.600;2023-07-28T06:02:39;18.20;99.90
26954;DHT22;14508;50.924;11.600;2023-07-28T06:05:12;18.20;99.90
26954;DHT22;14508;50.924;11.600;2023-07-28T06:07:41;18.30;99.90
26954;DHT22;14508;50.924;11.600;2023-07-28T06:10:09;18.40;99.90
26954;DHT22;14508;50.924;11.600;2023-07-28T06:12:38;18.60;99.90
26954;DHT22;14508;50.924;11.600;2023-07-28T06:15:07;18.70;99.90
26954;DHT22;14508;50.924;11.600;2023-07-28T06:17:37;18.70;99.90
26954;DHT22;14508;50.924;11.600;2023-07-28T06:20:07;18.80;99.90
26954;DHT22;14508;50.924;11.600;2023-07-28T06:22:36;18.80;99.90
26954;DHT22;14508;50.924;11.600;2023-07-28T06:25:04;18.90;99.90
26954;DHT22;14508;50.924;11.600;2023-07-28T06:27:32;18.90;99.90
26954;DHT22;14508;50.924;11.600;2023-07-28T06:30:02;19.00;99.90
26954;DHT22;14508;50.924;11.600;2023-07-28T06:32:30;19.00;99.90
26954;DHT22;14508;50.924;11.600;2023-07-28T06:34:58;19.10;99.90
26954;DHT22;14508;50.924;11.600;2023-07-28T06:37:26;19.20;99.90
26954;DHT22;14508;50.924;11.600;2023-07-28T06:39:54;19.30;99.90
26954;DHT22;14508;50.924;11.600;2023-07-28T06:42:22;19.30;99.90
26954;DHT22;14508;50.924;11.600;2023-07-28T06:44:55;19.30;99.90
26954;DHT22;14508;50.924;11.600;2023-07-28T06:47:25;19.40;99.90
26954;DHT22;14508;50.924;11.600;2023-07-28T06:49:53;19.50;99.90
26954;DHT22;14508;50.924;11.600;2023-07-28T06:52:21;19.50;99.90
26954;DHT22;14508;50.924;11.600;2023-07-28T06:54:49;19.60;99.90
26954;DHT22;14508;50.924;11.600;2023-07-28T06:57:17;19.70;99.90
26954;DHT22;14508;50.924;11.600;2023-07-28T06:59:46;19.60;99.90
26954;DHT22;14508;50.924;11.600;2023-07-28T07:02:14;19.70;99.90
26954;DHT22;14508;50.924;11.600;2023-07-28T07:04:44;19.70;99.90
26954;DHT22;14508;50.924;11.600;2023-07-28T07:07:12;19.70;99.90
26954;DHT22;14508;50.924;11.600;2023-07-28T07:09:40;19.70;99.90
26954;DHT22;14508;50.924;11.600;2023-07-28T07:12:09;19.70;99.90
26954;DHT22;14508;50.924;11.600;2023-07-28T07:14:37;19.70;99.90
26954;DHT22;14508;50.924;11.600;2023-07-28T07:17:05;19.70;99.90
26954;DHT22;14508;50.924;11.600;2023-07-28T07:19:33;19.70;99.90
26954;DHT22;14508;50.924;11.600;2023-07-28T07:22:03;19.70;99.90
26954;DHT22;14508;50.924;11.600;2023-07-28T07:24:31;19.80;99.90
26954;DHT22;14508;50.924;11.600;2023-07-28T07:26:59;19.90;99.90
26954;DHT22;14508;50.924;11.600;2023-07-28T07:29:27;20.20;99.90
26954;DHT22;14508;50.924;11.600;2023-07-28T07:31:55;20.40;99.90
26954;DHT22;14508;50.924;11.600;2023-07-28T07:34:23;20.50;99.90
26954;DHT22;14508;50.924;11.600;2023-07-28T07:36:51;20.60;99.90
26954;DHT22;14508;50.924;11.600;2023-07-28T07:39:21;20.70;99.90
26954;DHT22;14508;50.924;11.600;2023-07-28T07:41:49;20.80;99.90
26954;DHT22;14508;50.924;11.600;2023-07-28T07:44:17;21.00;99.90
26954;DHT22;14508;50.924;11.600;2023-07-28T07:46:45;21.20;99.90
26954;DHT22;14508;50.924;11.600;2023-07-28T07:49:13;21.30;99.90
26954;DHT22;14508;50.924;11.600;2023-07-28T07:51:40;21.60;99.90
26954;DHT22;14508;50.924;11.600;2023-07-28T07:54:08;21.60;99.90
26954;DHT22;14508;50.924;11.600;2023-07-28T07:56:38;21.70;99.90
26954;DHT22;14508;50.924;11.600;2023-07-28T07:59:06;21.90;99.90
26954;DHT22;14508;50.924;11.600;2023-07-28T08:01:34;22.00;99.90
26954;DHT22;14508;50.924;11.600;2023-07-28T08:04:02;22.10;99.90
26954;DHT22;14508;50.924;11.600;2023-07-28T08:06:30;22.10;99.90
26954;DHT22;14508;50.924;11.600;2023-07-28T08:08:58;22.10;99.90
26954;DHT22;14508;50.924;11.600;2023-07-28T08:11:26;22.20;99.90
26954;DHT22;14508;50.924;11.600;2023-07-28T08:13:55;22.30;99.90
26954;DHT22;14508;50.924;11.600;2023-07-28T08:16:23;22.40;99.90
26954;DHT22;14508;50.924;11.600;2023-07-28T08:18:51;22.50;99.90
26954;DHT22;14508;50.924;11.600;2023-07-28T08:21:19;22.60;99.90
26954;DHT22;14508;50.924;11.600;2023-07-28T08:23:47;22.50;99.90
26954;DHT22;14508;50.924;11.600;2023-07-28T08:26:15;22.60;99.90
26954;DHT22;14508;50.924;11.600;2023-07-28T08:28:43;22.60;99.90
26954;DHT22;14508;50.924;11.600;2023-07-28T08:31:12;22.60;99.90
26954;DHT22;14508;50.924;11.600;2023-07-28T08:33:40;22.50;99.90
26954;DHT22;14508;50.924;11.600;2023-07-28T08:36:08;22.60;99.90
26954;DHT22;14508;50.924;11.600;2023-07-28T08:38:36;22.90;99.90
26954;DHT22;14508;50.924;11.600;2023-07-28T08:41:05;23.00;99.90
26954;DHT22;14508;50.924;11.600;2023-07-28T08:43:33;22.90;99.90
26954;DHT22;14508;50.924;11.600;2023-07-28T08:46:01;22.90;99.90
26954;DHT22;14508;50.924;11.600;2023-07-28T08:48:31;22.90;99.90
26954;DHT22;14508;50.924;11.600;2023-07-28T08:51:00;22.90;99.90
26954;DHT22;14508;50.924;11.600;2023-07-28T08:53:27;22.90;99.90
26954;DHT22;14508;50.924;11.600;2023-07-28T08:55:55;23.00;99.90
26954;DHT22;14508;50.924;11.600;2023-07-28T08:58:23;23.10;99.90
26954;DHT22;14508;50.924;11.600;2023-07-28T09:00:52;23.20;99.90
26954;DHT22;14508;50.924;11.600;2023-07-28T09:03:20;23.30;99.90
26954;DHT22;14508;50.924;11.600;2023-07-28T09:05:50;23.40;99.90
26954;DHT22;14508;50.924;11.600;2023-07-28T09:08:18;23.40;99.90
26954;DHT22;14508;50.924;11.600;2023-07-28T09:10:48;23.40;99.90
26954;DHT22;14508;50.924;11.600;2023-07-28T09:13:17;23.30;99.90
26954;DHT22;14508;50.924;11.600;2023-07-28T09:15:47;23.30;99.90
26954;DHT22;14508;50.924;11.600;2023-07-28T09:18:17;23.30;99.90
26954;DHT22;14508;50.924;11.600;2023-07-28T09:20:45;23.30;99.90
26954;DHT22;14508;50.924;11.600;2023-07-28T09:23:14;23.40;99.90
26954;DHT22;14508;50.924;11.600;2023-07-28T09:25:43;23.50;99.90
26954;DHT22;14508;50.924;11.600;2023-07-28T09:28:11;23.70;99.90
26954;DHT22;14508;50.924;11.600;2023-07-28T09:30:46;23.70;99.00
26954;DHT22;14508;50.924;11.600;2023-07-28T09:33:28;23.90;99.00
26954;DHT22;14508;50.924;11.600;2023-07-28T09:35:57;24.00;98.00
26954;DHT22;14508;50.924;11.600;2023-07-28T09:38:36;24.00;95.60
26954;DHT22;14508;50.924;11.600;2023-07-28T09:41:05;24.20;94.90
26954;DHT22;14508;50.924;11.600;2023-07-28T09:43:34;24.30;94.50
26954;DHT22;14508;50.924;11.600;2023-07-28T09:46:04;24.30;93.50
26954;DHT22;14508;50.924;11.600;2023-07-28T09:48:34;24.30;92.00
26954;DHT22;14508;50.924;11.600;2023-07-28T09:51:06;24.30;92.20
26954;DHT22;14508;50.924;11.600;2023-07-28T09:53:41;24.20;91.50
26954;DHT22;14508;50.924;11.600;2023-07-28T09:56:12;24.30;91.70
26954;DHT22;14508;50.924;11.600;2023-07-28T09:58:47;24.30;91.10
26954;DHT22;14508;50.924;11.600;2023-07-28T10:01:17;24.30;91.50
26954;DHT22;14508;50.924;11.600;2023-07-28T10:03:46;24.30;91.30
26954;DHT22;14508;50.924;11.600;2023-07-28T10:06:15;24.30;90.40
26954;DHT22;14508;50.924;11.600;2023-07-28T10:08:45;24.40;90.80
26954;DHT22;14508;50.924;11.600;2023-07-28T10:11:14;24.50;90.90
26954;DHT22;14508;50.924;11.600;2023-07-28T10:13:43;24.60;90.90
26954;DHT22;14508;50.924;11.600;2023-07-28T10:16:16;24.60;90.40
26954;DHT22;14508;50.924;11.600;2023-07-28T10:18:52;24.70;90.10
26954;DHT22;14508;50.924;11.600;2023-07-28T10:21:20;24.70;87.60
26954;DHT22;14508;50.924;11.600;2023-07-28T10:23:55;24.70;87.00
26954;DHT22;14508;50.924;11.600;2023-07-28T10:26:37;24.70;86.90
26954;DHT22;14508;50.924;11.600;2023-07-28T10:29:10;24.70;84.00
26954;DHT22;14508;50.924;11.600;2023-07-28T10:31:50;24.60;84.90
26954;DHT22;14508;50.924;11.600;2023-07-28T10:34:18;24.70;85.80
26954;DHT22;14508;50.924;11.600;2023-07-28T10:36:56;24.80;84.40
26954;DHT22;14508;50.924;11.600;2023-07-28T10:39:25;24.90;84.10
26954;DHT22;14508;50.924;11.600;2023-07-28T10:42:01;24.90;83.50
26954;DHT22;14508;50.924;11.600;2023-07-28T10:44:30;24.80;83.00
26954;DHT22;14508;50.924;11.600;2023-07-28T10:46:58;24.90;84.40
26954;DHT22;14508;50.924;11.600;2023-07-28T10:49:27;25.00;84.50
26954;DHT22;14508;50.924;11.600;2023-07-28T10:51:55;25.00;82.60
26954;DHT22;14508;50.924;11.600;2023-07-28T10:54:24;25.10;82.00
26954;DHT22;14508;50.924;11.600;2023-07-28T10:56:52;25.10;81.90
26954;DHT22;14508;50.924;11.600;2023-07-28T10:59:20;25.20;79.30
26954;DHT22;14508;50.924;11.600;2023-07-28T11:01:48;25.20;78.10
26954;DHT22;14508;50.924;11.600;2023-07-28T11:04:17;25.00;77.90
26954;DHT22;14508;50.924;11.600;2023-07-28T11:06:47;25.00;78.20
26954;DHT22;14508;50.924;11.600;2023-07-28T11:09:17;25.00;79.30
26954;DHT22;14508;50.924;11.600;2023-07-28T11:11:47;25.10;79.90
26954;DHT22;14508;50.924;11.600;2023-07-28T11:14:17;25.20;78.60
26954;DHT22;14508;50.924;11.600;2023-07-28T11:16:46;25.40;77.80
26954;DHT22;14508;50.924;11.600;2023-07-28T11:19:16;25.40;76.40
26954;DHT22;14508;50.924;11.600;2023-07-28T11:21:46;25.30;76.60
26954;DHT22;14508;50.924;11.600;2023-07-28T11:24:18;25.40;76.10
26954;DHT22;14508;50.924;11.600;2023-07-28T11:26:49;25.40;75.70
26954;DHT22;14508;50.924;11.600;2023-07-28T11:29:18;25.50;76.30
26954;DHT22;14508;50.924;11.600;2023-07-28T11:31:47;25.50;75.50
26954;DHT22;14508;50.924;11.600;2023-07-28T11:34:16;25.50;73.20
26954;DHT22;14508;50.924;11.600;2023-07-28T11:36:45;25.50;72.40
26954;DHT22;14508;50.924;11.600;2023-07-28T11:39:13;25.40;73.60
26954;DHT22;14508;50.924;11.600;2023-07-28T11:41:42;25.30;73.60
26954;DHT22;14508;50.924;11.600;2023-07-28T11:44:12;25.30;72.90
26954;DHT22;14508;50.924;11.600;2023-07-28T11:46:42;25.40;73.60
26954;DHT22;14508;50.924;11.600;2023-07-28T11:49:11;25.40;74.00
26954;DHT22;14508;50.924;11.600;2023-07-28T11:51:40;25.40;74.00
26954;DHT22;14508;50.924;11.600;2023-07-28T11:54:11;25.40;73.80
26954;DHT22;14508;50.924;11.600;2023-07-28T11:56:41;25.50;73.40
26954;DHT22;14508;50.924;11.600;2023-07-28T11:59:09;25.60;72.60
26954;DHT22;14508;50.924;11.600;2023-07-28T12:01:55;25.60;72.00
26954;DHT22;14508;50.924;11.600;2023-07-28T12:04:28;25.80;71.70
26954;DHT22;14508;50.924;11.600;2023-07-28T12:07:04;25.90;70.80
26954;DHT22;14508;50.924;11.600;2023-07-28T12:09:47;26.00;70.60
26954;DHT22;14508;50.924;11.600;2023-07-28T12:12:17;25.90;70.20
26954;DHT22;14508;50.924;11.600;2023-07-28T12:14:48;25.80;70.90
26954;DHT22;14508;50.924;11.600;2023-07-28T12:17:39;25.60;71.40
26954;DHT22;14508;50.924;11.600;2023-07-28T12:20:10;25.40;70.80
26954;DHT22;14508;50.924;11.600;2023-07-28T12:22:40;25.40;70.90
26954;DHT22;14508;50.924;11.600;2023-07-28T12:25:09;25.40;71.70
26954;DHT22;14508;50.924;11.600;2023-07-28T12:27:37;25.40;72.20
26954;DHT22;14508;50.924;11.600;2023-07-28T12:30:06;25.20;72.40
26954;DHT22;14508;50.924;11.600;2023-07-28T12:32:44;25.10;73.10
26954;DHT22;14508;50.924;11.600;2023-07-28T12:35:15;25.00;73.90
26954;DHT22;14508;50.924;11.600;2023-07-28T12:37:43;25.00;74.90
26954;DHT22;14508;50.924;11.600;2023-07-28T12:40:14;25.20;75.40
26954;DHT22;14508;50.924;11.600;2023-07-28T12:42:46;25.40;75.10
26954;DHT22;14508;50.924;11.600;2023-07-28T12:45:17;25.50;72.80
26954;DHT22;14508;50.924;11.600;2023-07-28T12:47:50;25.40;73.20
26954;DHT22;14508;50.924;11.600;2023-07-28T12:50:21;25.40;74.40
26954;DHT22;14508;50.924;11.600;2023-07-28T12:52:49;25.60;74.40
26954;DHT22;14508;50.924;11.600;2023-07-28T12:55:20;25.80;73.70
26954;DHT22;14508;50.924;11.600;2023-07-28T12:57:47;25.90;71.50
26954;DHT22;14508;50.924;11.600;2023-07-28T13:00:16;26.00;71.70
26954;DHT22;14508;50.924;11.600;2023-07-28T13:02:47;26.20;70.60
26954;DHT22;14508;50.924;11.600;2023-07-28T13:05:17;26.20;70.50
26954;DHT22;14508;50.924;11.600;2023-07-28T13:07:45;26.20;69.80
26954;DHT22;14508;50.924;11.600;2023-07-28T13:10:15;26.10;70.50
26954;DHT22;14508;50.924;11.600;2023-07-28T13:12:46;26.20;69.70
26954;DHT22;14508;50.924;11.600;2023-07-28T13:15:16;26.10;68.30
26954;DHT22;14508;50.924;11.600;2023-07-28T13:17:44;26.10;68.20
26954;DHT22;14508;50.924;11.600;2023-07-28T13:20:12;26.20;68.60
26954;DHT22;14508;50.924;11.600;2023-07-28T13:22:41;26.40;68.60
26954;DHT22;14508;50.924;11.600;2023-07-28T13:25:09;26.60;68.10
26954;DHT22;14508;50.924;11.600;2023-07-28T13:27:37;26.70;66.30
26954;DHT22;14508;50.924;11.600;2023-07-28T13:30:06;26.80;64.70
26954;DHT22;14508;50.924;11.600;2023-07-28T13:32:34;26.70;63.70
26954;DHT22;14508;50.924;11.600;2023-07-28T13:35:03;26.50;64.50
26954;DHT22;14508;50.924;11.600;2023-07-28T13:37:31;26.50;65.10
26954;DHT22;14508;50.924;11.600;2023-07-28T13:40:00;26.60;65.50
26954;DHT22;14508;50.924;11.600;2023-07-28T13:42:28;26.70;64.70
26954;DHT22;14508;50.924;11.600;2023-07-28T13:44:56;26.80;63.80
26954;DHT22;14508;50.924;11.600;2023-07-28T13:47:25;26.80;63.80
26954;DHT22;14508;50.924;11.600;2023-07-28T13:49:53;26.90;64.40
26954;DHT22;14508;50.924;11.600;2023-07-28T13:52:21;26.90;62.60
26954;DHT22;14508;50.924;11.600;2023-07-28T13:54:49;26.90;62.00
26954;DHT22;14508;50.924;11.600;2023-07-28T13:57:21;26.90;62.70
26954;DHT22;14508;50.924;11.600;2023-07-28T13:59:49;27.10;62.40
26954;DHT22;14508;50.924;11.600;2023-07-28T14:02:17;27.20;61.20
26954;DHT22;14508;50.924;11.600;2023-07-28T14:04:46;27.20;61.30
26954;DHT22;14508;50.924;11.600;2023-07-28T14:07:14;27.30;61.40
26954;DHT22;14508;50.924;11.600;2023-07-28T14:09:42;27.30;60.80
26954;DHT22;14508;50.924;11.600;2023-07-28T14:12:10;27.30;60.10
26954;DHT22;14508;50.924;11.600;2023-07-28T14:14:39;27.30;60.20
26954;DHT22;14508;50.924;11.600;2023-07-28T14:17:07;27.20;60.70
26954;DHT22;14508;50.924;11.600;2023-07-28T14:19:38;27.10;59.70
26954;DHT22;14508;50.924;11.600;2023-07-28T14:22:06;26.90;60.40
26954;DHT22;14508;50.924;11.600;2023-07-28T14:24:34;26.90;60.80
26954;DHT22;14508;50.924;11.600;2023-07-28T14:27:03;26.90;62.20
26954;DHT22;14508;50.924;11.600;2023-07-28T14:29:31;26.80;62.40
26954;DHT22;14508;50.924;11.600;2023-07-28T14:32:00;26.80;63.30
26954;DHT22;14508;50.924;11.600;2023-07-28T14:34:28;26.80;63.30
26954;DHT22;14508;50.924;11.600;2023-07-28T14:36:56;26.80;63.20
26954;DHT22;14508;50.924;11.600;2023-07-28T14:39:24;26.70;63.40
26954;DHT22;14508;50.924;11.600;2023-07-28T14:41:53;26.60;64.00
26954;DHT22;14508;50.924;11.600;2023-07-28T14:44:21;26.60;63.60
26954;DHT22;14508;50.924;11.600;2023-07-28T14:46:49;26.50;62.00
26954;DHT22;14508;50.924;11.600;2023-07-28T14:49:18;26.50;62.00
26954;DHT22;14508;50.924;11.600;2023-07-28T14:51:46;26.50;62.50
26954;DHT22;14508;50.924;11.600;2023-07-28T14:54:14;26.50;62.90
26954;DHT22;14508;50.924;11.600;2023-07-28T14:56:42;26.40;63.00
26954;DHT22;14508;50.924;11.600;2023-07-28T14:59:10;26.40;63.00
26954;DHT22;14508;50.924;11.600;2023-07-28T15:01:38;26.50;63.20
26954;DHT22;14508;50.924;11.600;2023-07-28T15:04:06;26.50;63.20
26954;DHT22;14508;50.924;11.600;2023-07-28T15:06:35;26.50;63.00
26954;DHT22;14508;50.924;11.600;2023-07-28T15:09:03;26.50;62.90
26954;DHT22;14508;50.924;11.600;2023-07-28T15:11:31;26.60;61.80
26954;DHT22;14508;50.924;11.600;2023-07-28T15:14:00;26.70;61.30
26954;DHT22;14508;50.924;11.600;2023-07-28T15:16:28;26.70;60.30
26954;DHT22;14508;50.924;11.600;2023-07-28T15:18:56;26.90;60.20
26954;DHT22;14508;50.924;11.600;2023-07-28T15:21:24;27.00;60.00
26954;DHT22;14508;50.924;11.600;2023-07-28T15:23:54;27.10;59.80
26954;DHT22;14508;50.924;11.600;2023-07-28T15:26:22;27.10;60.30
26954;DHT22;14508;50.924;11.600;2023-07-28T15:28:50;27.00;60.00